Time;durP1;ratioP1;P1;durP2;ratioP2;P2;SDS_P1;SDS_P2;PMS_P1;PMS_P2;Temp;Humidity;BMP_temperature;BMP_pressure;BME280_temperature;BME280_humidity;BME280_pressure;Samples;Min_cycle;Max_cycle;Signal;HPM_P1;HPM_P2
2022/08/23 09:51:40;;;;;;;4.82;1.40;;;;;;;24.73;36.96;94188.00;1082945;23;21775;31
2022/08/23 09:54:35;;;;;;;2.65;1.40;;;;;;;24.49;35.58;94182.47;4850081;29;20264;-96
2022/08/23 09:57:29;;;;;;;4.55;1.83;;;;;;;24.95;34.23;94180.66;4880362;29;20679;-96
2022/08/23 10:00:22;;;;;;;4.28;1.60;;;;;;;25.34;35.13;94185.03;4870166;29;20207;-95
2022/08/23 10:03:25;;;;;;;7.22;2.00;;;;;;;25.42;34.16;94183.75;4862243;29;20225;-95
2022/08/23 10:06:35;;;;;;;4.43;1.88;;;;;;;24.77;37.38;94188.09;4862574;29;20259;-96
2022/08/23 10:56:52;;;;;;;3.38;1.40;;;;;;;25.31;34.74;94174.94;4946722;29;20227;-95
2022/08/23 11:00:16;;;;;;;12.27;1.55;;;;;;;25.74;33.54;94170.03;4951070;29;20227;-96
2022/08/23 11:03:29;;;;;;;4.10;1.27;;;;;;;25.96;30.83;94167.56;4934390;29;20230;-92
2022/08/23 11:06:35;;;;;;;2.67;1.35;;;;;;;25.78;32.10;94167.25;4920053;29;20205;-96
2022/08/23 11:09:25;;;;;;;5.75;1.40;;;;;;;26.19;32.00;94157.91;4936502;29;20202;-95
2022/08/23 11:12:23;;;;;;;11.45;1.77;;;;;;;26.12;31.92;94164.97;4943558;29;20198;-95
2022/08/23 11:15:59;;;;;;;7.03;1.60;;;;;;;25.99;32.33;94160.44;4942969;29;20204;-95
2022/08/23 11:18:49;;;;;;;1.10;1.05;;;;;;;25.93;33.96;94166.06;4919014;29;20215;-95
2022/08/23 11:21:47;;;;;;;2.30;1.17;;;;;;;25.68;35.15;94158.44;4925005;29;20231;-96
2022/08/23 11:24:49;;;;;;;2.55;1.30;;;;;;;25.53;37.00;94153.84;4924269;29;20255;-96
2022/08/23 11:27:45;;;;;;;13.90;2.03;;;;;;;26.14;34.52;94161.41;4909486;29;20234;-96
2022/08/23 11:30:45;;;;;;;3.40;1.33;;;;;;;25.43;35.42;94165.13;4929656;29;20251;-96
2022/08/23 11:33:47;;;;;;;12.13;2.03;;;;;;;26.31;33.95;94166.03;4917619;29;20203;-91
2022/08/23 11:36:33;;;;;;;5.40;1.50;;;;;;;25.17;36.40;94154.59;4925122;29;20239;-95
2022/08/23 11:39:25;;;;;;;4.10;1.50;;;;;;;26.24;34.71;94146.50;4924505;29;20215;-96
2022/08/23 11:43:01;;;;;;;5.90;1.50;;;;;;;26.24;34.72;94158.00;4940472;28;20234;-96
2022/08/23 11:45:47;;;;;;;2.65;1.30;;;;;;;26.71;33.12;94168.06;4918387;29;20224;-95
2022/08/23 11:48:39;;;;;;;4.00;1.20;;;;;;;26.48;33.37;94164.84;4927360;29;20235;-94
2022/08/23 11:51:41;;;;;;;3.00;1.38;;;;;;;26.30;34.50;94164.56;4900515;29;20219;-87
2022/08/23 11:55:03;;;;;;;2.35;1.58;;;;;;;26.82;32.91;94161.75;4920604;29;20223;-89
2022/08/23 11:58:16;;;;;;;1.85;1.20;;;;;;;25.41;36.86;94156.47;4924845;29;20254;-93
2022/08/23 12:01:40;;;;;;;4.25;1.60;;;;;;;26.65;33.79;94154.34;4928711;29;20270;-96
2022/08/23 12:04:40;;;;;;;11.75;2.38;;;;;;;26.41;34.15;94159.72;4905158;29;20259;-96
2022/08/23 12:08:36;;;;;;;5.30;1.30;;;;;;;26.33;34.38;94159.59;4924542;29;20286;-96
2022/08/23 12:11:55;;;;;;;4.07;1.33;;;;;;;26.75;35.17;94163.09;4907304;29;20230;-96
2022/08/23 14:26:23;;;;;;;1.60;1.40;;;;;;;27.58;32.64;94091.50;4957992;29;20277;-92
2022/08/23 14:47:54;;;;;;;6.88;2.88;;;;;;;27.07;29.23;94098.81;4905492;29;20228;-96
2022/08/23 14:50:40;;;;;;;3.58;1.40;;;;;;;27.08;31.43;94100.28;4891129;29;20253;-93
2022/08/23 17:34:41;;;;;;;3.70;2.10;;;;;;;23.29;47.79;94093.56;4931502;29;20238;-96
2022/08/23 17:37:26;;;;;;;3.33;2.00;;;;;;;23.35;47.67;94102.31;4902778;29;20203;-96
2022/08/23 17:40:14;;;;;;;4.28;1.70;;;;;;;23.06;49.42;94102.22;4906581;29;20238;-96
2022/08/23 17:43:01;;;;;;;3.95;1.90;;;;;;;22.84;51.44;94094.47;4883240;29;20239;-96
2022/08/23 17:45:49;;;;;;;6.07;1.88;;;;;;;22.64;52.67;94098.88;4928003;29;20270;-96
2022/08/23 17:48:35;;;;;;;5.15;2.20;;;;;;;22.38;53.97;94093.09;4905731;29;20227;-96
2022/08/23 17:51:20;;;;;;;4.03;1.98;;;;;;;22.15;53.98;94103.88;4877065;29;20246;-96
2022/08/23 17:54:05;;;;;;;4.40;2.20;;;;;;;22.06;54.22;94124.97;4891045;29;20218;-96
2022/08/23 17:56:50;;;;;;;7.03;2.67;;;;;;;21.88;54.25;94124.38;4902729;29;20200;-96
2022/08/23 17:59:35;;;;;;;6.15;2.10;;;;;;;21.71;55.42;94125.25;4893747;29;20222;-95
2022/08/23 18:02:20;;;;;;;2.92;2.55;;;;;;;21.34;56.64;94121.16;4900706;29;20203;-96
2022/08/23 18:05:06;;;;;;;4.35;3.25;;;;;;;21.16;57.94;94131.94;4904789;29;20271;-96
2022/08/23 18:07:52;;;;;;;6.63;3.75;;;;;;;20.92;58.25;94116.81;4884228;29;20204;-96
2022/08/23 18:10:37;;;;;;;6.65;3.40;;;;;;;20.68;58.96;94119.47;4906977;29;20235;-96
2022/08/23 18:13:24;;;;;;;5.90;3.33;;;;;;;20.36;60.75;94127.56;4889029;29;20240;-96
2022/08/23 18:16:08;;;;;;;2.38;2.17;;;;;;;20.22;60.97;94132.69;4899071;29;20214;-96
2022/08/23 18:18:57;;;;;;;3.00;2.20;;;;;;;20.23;60.69;94151.22;4905991;29;20796;-96
2022/08/23 18:21:43;;;;;;;3.13;2.20;;;;;;;20.05;60.42;94134.16;4880662;29;20208;-96
2022/08/23 18:24:28;;;;;;;3.58;2.10;;;;;;;19.90;61.89;94146.34;4889638;29;20264;-96
2022/08/23 18:30:19;;;;;;;3.22;2.30;;;;;;;19.34;62.25;94141.88;4905477;29;20199;-96
2022/08/23 18:33:07;;;;;;;1.85;1.75;;;;;;;19.19;62.38;94142.69;4903847;29;20682;-96
2022/08/23 18:35:51;;;;;;;4.10;2.45;;;;;;;18.97;63.18;94154.53;4906018;29;20212;-96
2022/08/23 18:38:37;;;;;;;2.08;1.80;;;;;;;18.81;63.60;94156.66;4907307;29;20573;-96
2022/08/23 18:41:26;;;;;;;2.57;1.60;;;;;;;18.71;64.31;94170.38;4914522;29;20200;-96
2022/08/23 18:44:11;;;;;;;4.32;1.92;;;;;;;18.43;65.00;94160.56;4896929;29;20243;-96
2022/08/23 18:46:58;;;;;;;3.58;2.05;;;;;;;18.29;65.65;94171.25;4916569;29;20290;-96
2022/08/23 18:49:44;;;;;;;6.87;2.50;;;;;;;18.09;66.12;94166.09;4890005;29;20217;-96
2022/08/23 18:52:31;;;;;;;1.90;1.60;;;;;;;18.09;66.02;94188.06;4909009;29;20199;-96
2022/08/23 18:55:16;;;;;;;3.83;1.83;;;;;;;17.93;65.75;94165.34;4891382;29;20207;-96
2022/08/23 18:58:06;;;;;;;3.70;1.80;;;;;;;18.01;65.56;94187.69;4894190;29;20363;-96
2022/08/23 19:00:50;;;;;;;3.63;1.87;;;;;;;17.93;65.58;94196.53;4892667;29;20204;-95
2022/08/23 19:03:36;;;;;;;2.67;1.90;;;;;;;17.78;65.57;94191.53;4898903;29;20239;-96
2022/08/23 19:06:41;;;;;;;4.70;2.40;;;;;;;17.61;66.63;94198.50;4915575;29;20216;-96
2022/08/23 19:09:51;;;;;;;3.43;2.37;;;;;;;17.37;67.94;94212.16;4900129;29;20199;-95
2022/08/23 19:12:46;;;;;;;2.30;2.10;;;;;;;17.29;67.57;94199.69;4910015;29;20278;-94
2022/08/23 19:15:35;;;;;;;3.70;2.43;;;;;;;17.23;67.86;94202.22;4887311;29;20211;-94
2022/08/23 19:18:20;;;;;;;2.20;2.00;;;;;;;17.14;68.16;94198.25;4903527;29;20239;-94
